Aérodrome :
LOGIN :

S'inscrire | Disclaimer

   EN    FR    IT 

 










Légende :    VFR   VFR Marginal   IFR   IFR Intensif   IFR Très Intensif
Visi : 
Plafond : 
>= 8 km
>= 3000ft
5 à 8 km
1000 à 3000 ft
1500m à 5 km
500 à 1000 ft
800 à 1500m
200 à 500 ft
< 800m
< 200 ft
Symboles :   Orages  Brouillard  Fortes neiges  Fortes précipitations  Vent > 20 kt
SIGMETs :   Divers  Orages  Givrage  Turbulence  Onde Orograph.  Cendres Volcan.







- Altitude de l'aérodrome : 55 ft
- Code IATA : DSA
- Voir les cartes d'approche


EGCN - Robin Hood Doncaster Sheffield

DERNIER METAR :
  • 161250Z 20014KT 9999 FEW023 SCT035 17/12 Q1013

METARs EXPIRÉS :
  • 161220Z 20012KT 9999 SCT020 BKN032 18/12 Q1014
  • 161150Z 18011KT 9999 SCT016 BKN022 16/12 Q1014
  • 161120Z 18014KT 9999 SCT016 BKN022 16/12 Q1014
  • 161050Z 19012KT 9999 FEW023 16/11 Q1014
  • 161020Z 19015KT 9999 SCT018 SCT024 15/10 Q1014

TAF TAF EGCN
Valide du 16 à 12h jusqu'au 17 à 12h UTC


161054Z 1612/1712 19012KT 9999 SCT040
TEMPO 1612/1622 7000 SHRA
PROB30
TEMPO 1612/1621 4000 +SHRA
PROB30
TEMPO 1612/1706 20015G25KT
TEMPO 1700/1712 8000 BKN014
PROB30
TEMPO 1703/1712 RA BKN005
Pas de NOTAMs connus pour ce terrain.



MET'MAP, la Météo Aéronautique d'un coup d'oeil ! - Copyright ORBIFLY Décembre 2007 - Disclaimer

ORBIFLY MET'MAP TEAM :

Programmation & Développement : Alexandra Zaïnal
Conception & Développement : Baudouin d'Aumeries
Co-Programmation & Développement : Marc-Olivier Méhu
Soutien technique & logistique : Manuel Goepfert

Contact : metmap@orbifly.com




SOURCES & CREDITS :

   NOAA